sensor_id;sensor_type;location;lat;lon;timestamp;pressure;altitude;pressure_sealevel;temperature;humidity
54856;BME280;40748;53.168;5.800;2023-02-23T00:04:53;101258.42;;;8.50;100.00
54856;BME280;40748;53.168;5.800;2023-02-23T00:07:23;101259.88;;;8.49;100.00
54856;BME280;40748;53.168;5.800;2023-02-23T00:09:53;101256.45;;;8.24;100.00
54856;BME280;40748;53.168;5.800;2023-02-23T00:12:24;101258.06;;;8.16;100.00
54856;BME280;40748;53.168;5.800;2023-02-23T00:14:53;101256.62;;;8.05;100.00
54856;BME280;40748;53.168;5.800;2023-02-23T00:19:53;101258.37;;;8.07;100.00
54856;BME280;40748;53.168;5.800;2023-02-23T00:22:23;101255.98;;;8.24;100.00
54856;BME280;40748;53.168;5.800;2023-02-23T00:24:53;101255.98;;;8.33;100.00
54856;BME280;40748;53.168;5.800;2023-02-23T00:27:23;101254.06;;;8.38;100.00
54856;BME280;40748;53.168;5.800;2023-02-23T00:29:53;101251.01;;;8.34;100.00
54856;BME280;40748;53.168;5.800;2023-02-23T00:32:23;101246.31000000001;;;8.25;100.00
54856;BME280;40748;53.168;5.800;2023-02-23T00:34:53;101243.02;;;8.38;100.00
54856;BME280;40748;53.168;5.800;2023-02-23T00:37:23;101234.95;;;8.44;100.00
54856;BME280;40748;53.168;5.800;2023-02-23T00:39:53;101236.35;;;8.46;100.00
54856;BME280;40748;53.168;5.800;2023-02-23T00:42:23;101234.06;;;8.39;100.00
54856;BME280;40748;53.168;5.800;2023-02-23T00:44:53;101242.90999999999;;;8.38;100.00
54856;BME280;40748;53.168;5.800;2023-02-23T00:47:23;101242.5;;;8.44;100.00
54856;BME280;40748;53.168;5.800;2023-02-23T00:49:53;101234.77;;;8.38;100.00
54856;BME280;40748;53.168;5.800;2023-02-23T00:52:23;101234.70999999999;;;8.42;100.00
54856;BME280;40748;53.168;5.800;2023-02-23T00:54:53;101231.36;;;8.44;100.00
54856;BME280;40748;53.168;5.800;2023-02-23T00:57:23;101230.11;;;8.49;100.00
54856;BME280;40748;53.168;5.800;2023-02-23T01:02:23;101238.73;;;8.53;100.00
54856;BME280;40748;53.168;5.800;2023-02-23T01:04:53;101242.04999999999;;;8.51;100.00
54856;BME280;40748;53.168;5.800;2023-02-23T01:07:23;101245.51;;;8.49;100.00
54856;BME280;40748;53.168;5.800;2023-02-23T01:09:53;101247.58;;;8.29;100.00
54856;BME280;40748;53.168;5.800;2023-02-23T01:12:23;101247.12;;;8.41;100.00
54856;BME280;40748;53.168;5.800;2023-02-23T01:14:53;101247.25;;;8.49;100.00
54856;BME280;40748;53.168;5.800;2023-02-23T01:17:23;101244.87000000001;;;8.51;100.00
54856;BME280;40748;53.168;5.800;2023-02-23T01:19:53;101244.67;;;8.47;100.00
54856;BME280;40748;53.168;5.800;2023-02-23T01:22:24;101249.68000000001;;;8.51;100.00
54856;BME280;40748;53.168;5.800;2023-02-23T01:24:53;101249.68000000001;;;8.47;100.00
54856;BME280;40748;53.168;5.800;2023-02-23T01:27:23;101252.11;;;8.48;100.00
54856;BME280;40748;53.168;5.800;2023-02-23T01:29:53;101253.99;;;8.44;100.00
54856;BME280;40748;53.168;5.800;2023-02-23T01:32:23;101257.5;;;8.52;100.00
54856;BME280;40748;53.168;5.800;2023-02-23T01:34:53;101258.39;;;8.54;100.00
54856;BME280;40748;53.168;5.800;2023-02-23T01:37:23;101258.39;;;8.53;100.00
54856;BME280;40748;53.168;5.800;2023-02-23T01:39:53;101259.01;;;8.55;100.00
54856;BME280;40748;53.168;5.800;2023-02-23T01:42:23;101259.73;;;8.54;100.00
54856;BME280;40748;53.168;5.800;2023-02-23T01:47:23;101257.78;;;8.56;100.00
54856;BME280;40748;53.168;5.800;2023-02-23T01:49:53;101258.33;;;8.64;100.00
54856;BME280;40748;53.168;5.800;2023-02-23T01:54:53;101261.67;;;8.62;100.00
54856;BME280;40748;53.168;5.800;2023-02-23T01:57:23;101261.84;;;8.64;100.00
54856;BME280;40748;53.168;5.800;2023-02-23T01:59:53;101263.55;;;8.65;100.00
54856;BME280;40748;53.168;5.800;2023-02-23T02:02:25;101263.7;;;8.67;100.00
54856;BME280;40748;53.168;5.800;2023-02-23T02:07:24;101275.23;;;8.69;100.00
54856;BME280;40748;53.168;5.800;2023-02-23T02:14:53;101276.39;;;8.70;100.00
54856;BME280;40748;53.168;5.800;2023-02-23T02:25:01;101282.56;;;8.70;100.00
54856;BME280;40748;53.168;5.800;2023-02-23T02:27:27;101285.40000000001;;;8.71;100.00
54856;BME280;40748;53.168;5.800;2023-02-23T02:30:03;101282.01000000001;;;8.72;100.00
54856;BME280;40748;53.168;5.800;2023-02-23T02:42:26;101275.16;;;8.61;100.00
54856;BME280;40748;53.168;5.800;2023-02-23T02:44:54;101269.59000000001;;;8.65;100.00
54856;BME280;40748;53.168;5.800;2023-02-23T02:47:25;101268.62999999999;;;8.67;100.00
54856;BME280;40748;53.168;5.800;2023-02-23T02:49:56;101271.23;;;8.66;100.00
54856;BME280;40748;53.168;5.800;2023-02-23T02:52:24;101269.81;;;8.65;100.00
54856;BME280;40748;53.168;5.800;2023-02-23T02:59:53;101270.96;;;8.63;100.00
54856;BME280;40748;53.168;5.800;2023-02-23T03:04:53;101273.86;;;8.60;100.00
54856;BME280;40748;53.168;5.800;2023-02-23T03:07:25;101272.5;;;8.59;100.00
54856;BME280;40748;53.168;5.800;2023-02-23T03:09:54;101273.03;;;8.58;100.00
54856;BME280;40748;53.168;5.800;2023-02-23T03:12:26;101284.48;;;8.57;100.00
54856;BME280;40748;53.168;5.800;2023-02-23T03:17:26;101292.69;;;8.54;100.00
54856;BME280;40748;53.168;5.800;2023-02-23T03:19:54;101291.36;;;8.55;100.00
54856;BME280;40748;53.168;5.800;2023-02-23T03:24:55;101293.89;;;8.49;100.00
54856;BME280;40748;53.168;5.800;2023-02-23T03:27:25;101293.62999999999;;;8.52;100.00
54856;BME280;40748;53.168;5.800;2023-02-23T03:29:54;101298.75;;;8.53;100.00
54856;BME280;40748;53.168;5.800;2023-02-23T03:32:24;101299.56;;;8.51;100.00
54856;BME280;40748;53.168;5.800;2023-02-23T03:34:54;101299.65;;;8.50;100.00
54856;BME280;40748;53.168;5.800;2023-02-23T03:37:24;101301.86;;;8.48;100.00
54856;BME280;40748;53.168;5.800;2023-02-23T03:39:55;101302.89;;;8.46;100.00
54856;BME280;40748;53.168;5.800;2023-02-23T03:42:25;101303.34;;;8.45;100.00
54856;BME280;40748;53.168;5.800;2023-02-23T03:44:53;101302.9;;;8.46;100.00
54856;BME280;40748;53.168;5.800;2023-02-23T03:49:53;101303.02;;;8.48;100.00
54856;BME280;40748;53.168;5.800;2023-02-23T03:52:25;101310.19;;;8.46;100.00
54856;BME280;40748;53.168;5.800;2023-02-23T03:54:55;101310.11;;;8.45;100.00
54856;BME280;40748;53.168;5.800;2023-02-23T03:57:24;101310.19;;;8.47;100.00
54856;BME280;40748;53.168;5.800;2023-02-23T03:59:54;101317.0;;;8.46;100.00
54856;BME280;40748;53.168;5.800;2023-02-23T04:02:23;101308.72;;;8.38;100.00
54856;BME280;40748;53.168;5.800;2023-02-23T04:04:53;101311.36;;;8.36;100.00
54856;BME280;40748;53.168;5.800;2023-02-23T04:07:23;101314.48000000001;;;8.34;100.00
54856;BME280;40748;53.168;5.800;2023-02-23T04:09:54;101320.22;;;8.36;100.00
54856;BME280;40748;53.168;5.800;2023-02-23T04:12:25;101320.22;;;8.35;100.00
54856;BME280;40748;53.168;5.800;2023-02-23T04:14:55;101317.17;;;8.34;100.00
54856;BME280;40748;53.168;5.800;2023-02-23T04:17:24;101321.82;;;8.35;100.00
54856;BME280;40748;53.168;5.800;2023-02-23T04:22:23;101320.92;;;8.34;100.00
54856;BME280;40748;53.168;5.800;2023-02-23T04:24:53;101325.28;;;8.33;100.00
54856;BME280;40748;53.168;5.800;2023-02-23T04:29:53;101326.59;;;8.32;100.00
54856;BME280;40748;53.168;5.800;2023-02-23T04:32:23;101328.47;;;8.31;100.00
54856;BME280;40748;53.168;5.800;2023-02-23T04:34:53;101328.92;;;8.30;100.00
54856;BME280;40748;53.168;5.800;2023-02-23T04:39:53;101329.33;;;8.27;100.00
54856;BME280;40748;53.168;5.800;2023-02-23T04:42:23;101335.38;;;8.28;100.00
54856;BME280;40748;53.168;5.800;2023-02-23T04:44:53;101334.31;;;8.27;100.00
54856;BME280;40748;53.168;5.800;2023-02-23T04:47:23;101336.84;;;8.28;100.00
54856;BME280;40748;53.168;5.800;2023-02-23T04:49:53;101343.84999999999;;;8.27;100.00
54856;BME280;40748;53.168;5.800;2023-02-23T04:54:53;101346.13;;;8.26;100.00
54856;BME280;40748;53.168;5.800;2023-02-23T05:04:53;101342.92;;;8.25;100.00
54856;BME280;40748;53.168;5.800;2023-02-23T05:07:23;101345.0;;;8.23;100.00
54856;BME280;40748;53.168;5.800;2023-02-23T05:12:23;101346.59;;;8.22;100.00
54856;BME280;40748;53.168;5.800;2023-02-23T05:17:23;101349.37;;;8.24;100.00
54856;BME280;40748;53.168;5.800;2023-02-23T05:24:53;101346.95;;;8.23;100.00
54856;BME280;40748;53.168;5.800;2023-02-23T05:27:23;101351.97;;;8.24;100.00
54856;BME280;40748;53.168;5.800;2023-02-23T05:29:53;101352.70000000001;;;8.25;100.00
54856;BME280;40748;53.168;5.800;2023-02-23T05:37:23;101352.49;;;8.26;100.00
54856;BME280;40748;53.168;5.800;2023-02-23T05:39:53;101353.19;;;8.25;100.00
54856;BME280;40748;53.168;5.800;2023-02-23T05:42:23;101356.03;;;8.26;100.00
54856;BME280;40748;53.168;5.800;2023-02-23T05:44:53;101354.94;;;8.25;100.00
54856;BME280;40748;53.168;5.800;2023-02-23T05:47:23;101350.5;;;8.26;100.00
54856;BME280;40748;53.168;5.800;2023-02-23T05:57:23;101348.65999999999;;;8.27;100.00
54856;BME280;40748;53.168;5.800;2023-02-23T05:59:53;101346.7;;;8.26;100.00
54856;BME280;40748;53.168;5.800;2023-02-23T06:02:24;101346.09;;;8.27;100.00
54856;BME280;40748;53.168;5.800;2023-02-23T06:04:53;101345.76;;;8.26;100.00
54856;BME280;40748;53.168;5.800;2023-02-23T06:17:23;101360.97;;;8.27;100.00
54856;BME280;40748;53.168;5.800;2023-02-23T06:19:53;101366.79000000001;;;8.28;100.00
54856;BME280;40748;53.168;5.800;2023-02-23T06:24:54;101376.86;;;8.27;100.00
54856;BME280;40748;53.168;5.800;2023-02-23T06:29:53;101377.06;;;8.28;100.00
54856;BME280;40748;53.168;5.800;2023-02-23T06:39:53;101391.28;;;8.29;100.00
54856;BME280;40748;53.168;5.800;2023-02-23T06:47:24;101402.76;;;8.30;100.00
54856;BME280;40748;53.168;5.800;2023-02-23T06:49:53;101407.15;;;8.28;100.00
54856;BME280;40748;53.168;5.800;2023-02-23T06:54:53;101413.59999999999;;;8.29;100.00
54856;BME280;40748;53.168;5.800;2023-02-23T06:57:23;101417.76;;;8.30;100.00
54856;BME280;40748;53.168;5.800;2023-02-23T07:04:53;101422.77;;;8.31;100.00
54856;BME280;40748;53.168;5.800;2023-02-23T07:07:23;101422.79999999999;;;8.32;100.00
54856;BME280;40748;53.168;5.800;2023-02-23T07:09:53;101427.15;;;8.33;100.00
54856;BME280;40748;53.168;5.800;2023-02-23T07:12:23;101433.39;;;8.31;100.00
54856;BME280;40748;53.168;5.800;2023-02-23T07:19:53;101446.92;;;8.33;100.00
54856;BME280;40748;53.168;5.800;2023-02-23T07:22:23;101454.04999999999;;;8.30;100.00
54856;BME280;40748;53.168;5.800;2023-02-23T07:24:53;101457.11;;;8.31;100.00
54856;BME280;40748;53.168;5.800;2023-02-23T07:27:24;101456.3;;;8.33;100.00
54856;BME280;40748;53.168;5.800;2023-02-23T07:29:53;101457.97;;;8.30;100.00
54856;BME280;40748;53.168;5.800;2023-02-23T07:32:23;101461.06;;;8.33;100.00
54856;BME280;40748;53.168;5.800;2023-02-23T07:34:53;101462.61;;;8.34;100.00
54856;BME280;40748;53.168;5.800;2023-02-23T07:37:23;101457.81;;;8.31;100.00
54856;BME280;40748;53.168;5.800;2023-02-23T07:39:53;101462.17;;;8.29;100.00
54856;BME280;40748;53.168;5.800;2023-02-23T07:42:23;101462.91;;;8.27;100.00
54856;BME280;40748;53.168;5.800;2023-02-23T07:44:54;101470.53;;;8.31;100.00
54856;BME280;40748;53.168;5.800;2023-02-23T07:47:23;101469.78;;;8.34;100.00
54856;BME280;40748;53.168;5.800;2023-02-23T07:49:53;101473.0;;;8.37;100.00
54856;BME280;40748;53.168;5.800;2023-02-23T07:52:23;101476.09;;;8.40;100.00
54856;BME280;40748;53.168;5.800;2023-02-23T07:54:53;101481.62;;;8.42;100.00
54856;BME280;40748;53.168;5.800;2023-02-23T07:57:24;101480.97;;;8.40;100.00
54856;BME280;40748;53.168;5.800;2023-02-23T07:59:53;101483.79;;;8.45;100.00
54856;BME280;40748;53.168;5.800;2023-02-23T08:02:23;101493.06;;;8.46;100.00
54856;BME280;40748;53.168;5.800;2023-02-23T08:04:53;101492.62999999999;;;8.47;100.00
54856;BME280;40748;53.168;5.800;2023-02-23T08:07:23;101493.97;;;8.44;100.00
54856;BME280;40748;53.168;5.800;2023-02-23T08:09:53;101496.86;;;8.46;100.00
54856;BME280;40748;53.168;5.800;2023-02-23T08:14:53;101500.89;;;8.49;100.00
54856;BME280;40748;53.168;5.800;2023-02-23T08:17:23;101497.42;;;8.51;100.00
54856;BME280;40748;53.168;5.800;2023-02-23T08:19:53;101497.02;;;8.50;100.00
54856;BME280;40748;53.168;5.800;2023-02-23T08:22:23;101497.46;;;8.53;100.00
54856;BME280;40748;53.168;5.800;2023-02-23T08:24:53;101499.58;;;8.57;100.00
54856;BME280;40748;53.168;5.800;2023-02-23T08:27:23;101500.62000000001;;;8.59;100.00
54856;BME280;40748;53.168;5.800;2023-02-23T08:29:54;101501.36;;;8.63;100.00
54856;BME280;40748;53.168;5.800;2023-02-23T08:34:54;101501.75;;;8.67;100.00
54856;BME280;40748;53.168;5.800;2023-02-23T08:37:23;101503.26;;;8.70;100.00
54856;BME280;40748;53.168;5.800;2023-02-23T08:39:53;101506.22;;;8.73;100.00
54856;BME280;40748;53.168;5.800;2023-02-23T08:42:23;101510.58;;;8.69;100.00
54856;BME280;40748;53.168;5.800;2023-02-23T08:44:53;101511.73999999999;;;8.56;100.00
54856;BME280;40748;53.168;5.800;2023-02-23T08:47:23;101514.4;;;8.69;100.00
54856;BME280;40748;53.168;5.800;2023-02-23T08:49:53;101513.36;;;8.73;100.00
54856;BME280;40748;53.168;5.800;2023-02-23T08:52:23;101514.5;;;8.74;100.00
54856;BME280;40748;53.168;5.800;2023-02-23T08:54:53;101514.5;;;8.66;100.00
54856;BME280;40748;53.168;5.800;2023-02-23T08:57:23;101525.28;;;8.70;100.00
54856;BME280;40748;53.168;5.800;2023-02-23T08:59:54;101529.18;;;8.73;100.00
54856;BME280;40748;53.168;5.800;2023-02-23T09:02:23;101532.4;;;8.77;100.00
54856;BME280;40748;53.168;5.800;2023-02-23T09:07:23;101525.01999999999;;;8.73;100.00
54856;BME280;40748;53.168;5.800;2023-02-23T09:09:53;101525.01999999999;;;8.79;100.00
54856;BME280;40748;53.168;5.800;2023-02-23T09:12:24;101523.49;;;8.83;100.00
54856;BME280;40748;53.168;5.800;2023-02-23T09:14:53;101525.76000000001;;;8.86;100.00
54856;BME280;40748;53.168;5.800;2023-02-23T09:17:23;101525.76000000001;;;8.88;100.00
54856;BME280;40748;53.168;5.800;2023-02-23T09:19:53;101521.8;;;8.92;100.00
54856;BME280;40748;53.168;5.800;2023-02-23T09:24:54;101523.33;;;8.99;100.00
54856;BME280;40748;53.168;5.800;2023-02-23T09:27:23;101531.26999999999;;;9.04;100.00
54856;BME280;40748;53.168;5.800;2023-02-23T09:29:53;101534.67000000001;;;9.00;100.00
54856;BME280;40748;53.168;5.800;2023-02-23T09:32:23;101538.0;;;9.01;100.00
54856;BME280;40748;53.168;5.800;2023-02-23T09:34:53;101537.37999999999;;;9.08;100.00
54856;BME280;40748;53.168;5.800;2023-02-23T09:37:23;101540.62;;;9.05;100.00
54856;BME280;40748;53.168;5.800;2023-02-23T09:39:53;101538.75;;;9.03;100.00
54856;BME280;40748;53.168;5.800;2023-02-23T09:42:26;101541.41;;;9.11;100.00
54856;BME280;40748;53.168;5.800;2023-02-23T09:44:56;101545.18000000001;;;9.14;100.00
54856;BME280;40748;53.168;5.800;2023-02-23T09:47:27;101547.20999999999;;;9.24;100.00
54856;BME280;40748;53.168;5.800;2023-02-23T09:49:53;101544.84;;;9.26;100.00
54856;BME280;40748;53.168;5.800;2023-02-23T09:52:27;101541.99;;;9.33;100.00
54856;BME280;40748;53.168;5.800;2023-02-23T09:54:53;101543.87000000001;;;9.19;100.00
54856;BME280;40748;53.168;5.800;2023-02-23T09:57:24;101541.64;;;9.23;100.00
54856;BME280;40748;53.168;5.800;2023-02-23T09:59:53;101541.35;;;9.21;100.00
54856;BME280;40748;53.168;5.800;2023-02-23T10:02:25;101544.9;;;9.29;100.00
54856;BME280;40748;53.168;5.800;2023-02-23T10:04:55;101545.73000000001;;;9.37;100.00
54856;BME280;40748;53.168;5.800;2023-02-23T10:07:25;101551.23;;;9.33;100.00
54856;BME280;40748;53.168;5.800;2023-02-23T10:09:58;101555.83;;;9.38;100.00
54856;BME280;40748;53.168;5.800;2023-02-23T10:12:25;101557.64;;;9.42;100.00
54856;BME280;40748;53.168;5.800;2023-02-23T10:14:57;101561.14;;;9.50;100.00
54856;BME280;40748;53.168;5.800;2023-02-23T10:17:27;101561.18000000001;;;9.58;100.00
54856;BME280;40748;53.168;5.800;2023-02-23T10:19:55;101561.18000000001;;;9.65;100.00
54856;BME280;40748;53.168;5.800;2023-02-23T10:22:23;101562.62000000001;;;9.71;100.00
54856;BME280;40748;53.168;5.800;2023-02-23T10:24:54;101567.48999999999;;;9.69;100.00
54856;BME280;40748;53.168;5.800;2023-02-23T10:27:24;101567.61;;;9.75;100.00
54856;BME280;40748;53.168;5.800;2023-02-23T10:32:25;101576.89;;;9.79;100.00
54856;BME280;40748;53.168;5.800;2023-02-23T10:34:54;101576.34000000001;;;9.81;100.00
54856;BME280;40748;53.168;5.800;2023-02-23T10:39:54;101581.44;;;9.87;100.00
54856;BME280;40748;53.168;5.800;2023-02-23T10:42:24;101574.1;;;9.93;100.00
54856;BME280;40748;53.168;5.800;2023-02-23T10:44:53;101579.81;;;9.98;100.00
54856;BME280;40748;53.168;5.800;2023-02-23T10:49:54;101580.47;;;10.07;100.00
54856;BME280;40748;53.168;5.800;2023-02-23T10:52:28;101584.78;;;10.10;100.00
54856;BME280;40748;53.168;5.800;2023-02-23T10:54:53;101589.70000000001;;;10.12;100.00
54856;BME280;40748;53.168;5.800;2023-02-23T10:57:24;101594.23000000001;;;10.21;100.00
54856;BME280;40748;53.168;5.800;2023-02-23T10:59:58;101594.62;;;10.10;100.00
54856;BME280;40748;53.168;5.800;2023-02-23T11:02:24;101599.76000000001;;;10.12;100.00
54856;BME280;40748;53.168;5.800;2023-02-23T11:04:54;101605.83;;;10.18;100.00
54856;BME280;40748;53.168;5.800;2023-02-23T11:09:54;101610.41;;;10.16;100.00
54856;BME280;40748;53.168;5.800;2023-02-23T11:12:24;101607.7;;;10.09;100.00
54856;BME280;40748;53.168;5.800;2023-02-23T11:14:54;101607.45;;;10.06;100.00
54856;BME280;40748;53.168;5.800;2023-02-23T11:17:26;101612.5;;;9.84;100.00
54856;BME280;40748;53.168;5.800;2023-02-23T11:19:57;101612.34;;;9.76;100.00
54856;BME280;40748;53.168;5.800;2023-02-23T11:22:23;101611.56;;;9.88;100.00
54856;BME280;40748;53.168;5.800;2023-02-23T11:24:53;101612.89;;;9.97;100.00
54856;BME280;40748;53.168;5.800;2023-02-23T11:27:24;101612.67;;;10.03;100.00
54856;BME280;40748;53.168;5.800;2023-02-23T11:29:54;101614.31;;;10.06;100.00
54856;BME280;40748;53.168;5.800;2023-02-23T11:32:25;101612.29;;;10.09;100.00
54856;BME280;40748;53.168;5.800;2023-02-23T11:37:23;101610.27;;;10.10;100.00
54856;BME280;40748;53.168;5.800;2023-02-23T11:39:54;101607.15;;;10.09;100.00
54856;BME280;40748;53.168;5.800;2023-02-23T11:42:24;101609.99;;;10.13;100.00
54856;BME280;40748;53.168;5.800;2023-02-23T11:47:23;101609.22;;;10.16;100.00
54856;BME280;40748;53.168;5.800;2023-02-23T11:49:53;101613.84000000001;;;10.19;100.00
54856;BME280;40748;53.168;5.800;2023-02-23T11:52:24;101613.84000000001;;;10.21;100.00
54856;BME280;40748;53.168;5.800;2023-02-23T11:54:55;101618.28;;;10.25;100.00
54856;BME280;40748;53.168;5.800;2023-02-23T11:57:25;101619.34999999999;;;10.13;100.00
54856;BME280;40748;53.168;5.800;2023-02-23T11:59:54;101623.77;;;9.93;100.00
54856;BME280;40748;53.168;5.800;2023-02-23T12:02:25;101621.56;;;9.98;100.00
54856;BME280;40748;53.168;5.800;2023-02-23T12:05:00;101623.99;;;9.80;100.00
54856;BME280;40748;53.168;5.800;2023-02-23T12:07:25;101628.01;;;9.79;100.00
54856;BME280;40748;53.168;5.800;2023-02-23T12:09:56;101629.89;;;9.78;100.00
54856;BME280;40748;53.168;5.800;2023-02-23T12:12:25;101625.95;;;9.64;100.00
54856;BME280;40748;53.168;5.800;2023-02-23T12:14:55;101625.95;;;9.49;100.00
54856;BME280;40748;53.168;5.800;2023-02-23T12:17:24;101621.48999999999;;;9.48;100.00
54856;BME280;40748;53.168;5.800;2023-02-23T12:19:54;101623.29;;;9.53;100.00
54856;BME280;40748;53.168;5.800;2023-02-23T12:22:24;101621.63;;;9.57;100.00
54856;BME280;40748;53.168;5.800;2023-02-23T12:24:55;101621.37;;;9.48;100.00
54856;BME280;40748;53.168;5.800;2023-02-23T12:27:25;101621.94;;;9.50;100.00
54856;BME280;40748;53.168;5.800;2023-02-23T12:30:03;101626.05;;;9.39;100.00
54856;BME280;40748;53.168;5.800;2023-02-23T12:32:25;101629.11;;;9.10;100.00
54856;BME280;40748;53.168;5.800;2023-02-23T12:34:55;101631.98;;;9.36;100.00
54856;BME280;40748;53.168;5.800;2023-02-23T12:37:27;101631.98;;;9.39;100.00
54856;BME280;40748;53.168;5.800;2023-02-23T12:39:55;101640.01;;;9.19;100.00
54856;BME280;40748;53.168;5.800;2023-02-23T12:42:25;101637.13;;;9.02;100.00
54856;BME280;40748;53.168;5.800;2023-02-23T12:44:54;101644.34;;;9.20;100.00
54856;BME280;40748;53.168;5.800;2023-02-23T12:47:26;101638.76000000001;;;9.24;100.00
54856;BME280;40748;53.168;5.800;2023-02-23T12:49:54;101638.42;;;9.29;100.00
54856;BME280;40748;53.168;5.800;2023-02-23T12:52:24;101629.26999999999;;;8.82;100.00
54856;BME280;40748;53.168;5.800;2023-02-23T12:54:53;101642.13;;;9.10;100.00
54856;BME280;40748;53.168;5.800;2023-02-23T12:59:56;101647.14;;;8.96;100.00
54856;BME280;40748;53.168;5.800;2023-02-23T13:02:25;101648.35;;;8.68;100.00
54856;BME280;40748;53.168;5.800;2023-02-23T13:04:56;101651.09999999999;;;8.91;100.00
54856;BME280;40748;53.168;5.800;2023-02-23T13:07:27;101652.15;;;8.75;100.00
54856;BME280;40748;53.168;5.800;2023-02-23T13:09:56;101654.85;;;8.69;100.00
54856;BME280;40748;53.168;5.800;2023-02-23T13:12:26;101654.21;;;9.02;100.00
54856;BME280;40748;53.168;5.800;2023-02-23T13:14:55;101660.99;;;9.14;100.00
54856;BME280;40748;53.168;5.800;2023-02-23T13:19:55;101662.77;;;8.98;99.41
54856;BME280;40748;53.168;5.800;2023-02-23T13:22:26;101658.75;;;8.97;99.29
54856;BME280;40748;53.168;5.800;2023-02-23T13:24:54;101672.45;;;8.85;99.31
54856;BME280;40748;53.168;5.800;2023-02-23T13:27:24;101673.94;;;8.72;98.34
54856;BME280;40748;53.168;5.800;2023-02-23T13:29:53;101670.31;;;8.77;99.35
54856;BME280;40748;53.168;5.800;2023-02-23T13:32:24;101667.94;;;8.57;98.59
54856;BME280;40748;53.168;5.800;2023-02-23T13:34:55;101675.44;;;8.75;99.20
54856;BME280;40748;53.168;5.800;2023-02-23T13:37:24;101675.78;;;8.62;100.00
54856;BME280;40748;53.168;5.800;2023-02-23T13:39:55;101677.31;;;8.68;98.92
54856;BME280;40748;53.168;5.800;2023-02-23T13:42:29;101677.31999999999;;;8.47;99.38
54856;BME280;40748;53.168;5.800;2023-02-23T13:44:55;101686.51999999999;;;8.46;100.00
54856;BME280;40748;53.168;5.800;2023-02-23T13:47:28;101685.08;;;8.39;99.91
54856;BME280;40748;53.168;5.800;2023-02-23T13:49:55;101686.5;;;8.42;100.00
54856;BME280;40748;53.168;5.800;2023-02-23T13:52:27;101690.42;;;8.58;100.00
54856;BME280;40748;53.168;5.800;2023-02-23T13:54:54;101690.23;;;8.54;99.85
54856;BME280;40748;53.168;5.800;2023-02-23T13:57:23;101699.41;;;8.55;99.88
54856;BME280;40748;53.168;5.800;2023-02-23T13:59:53;101696.59;;;8.41;99.70
54856;BME280;40748;53.168;5.800;2023-02-23T14:02:30;101698.04000000001;;;8.63;99.82
54856;BME280;40748;53.168;5.800;2023-02-23T14:07:25;101691.26;;;8.73;99.72
54856;BME280;40748;53.168;5.800;2023-02-23T14:09:54;101695.67;;;8.70;99.28
54856;BME280;40748;53.168;5.800;2023-02-23T14:12:24;101699.58;;;8.66;99.80
54856;BME280;40748;53.168;5.800;2023-02-23T14:14:53;101706.52;;;8.64;100.00
54856;BME280;40748;53.168;5.800;2023-02-23T14:20:02;101713.08;;;8.80;99.26
54856;BME280;40748;53.168;5.800;2023-02-23T14:22:24;101709.58;;;8.51;99.57
54856;BME280;40748;53.168;5.800;2023-02-23T14:27:32;101717.07;;;8.44;98.60
54856;BME280;40748;53.168;5.800;2023-02-23T14:32:26;101711.13;;;8.40;99.21
54856;BME280;40748;53.168;5.800;2023-02-23T14:34:54;101711.13;;;8.16;99.13
54856;BME280;40748;53.168;5.800;2023-02-23T14:37:24;101707.62;;;8.42;98.41
54856;BME280;40748;53.168;5.800;2023-02-23T14:39:54;101707.62;;;8.45;98.41
54856;BME280;40748;53.168;5.800;2023-02-23T14:42:24;101710.88;;;8.43;98.62
54856;BME280;40748;53.168;5.800;2023-02-23T14:44:54;101702.89;;;8.46;98.42
54856;BME280;40748;53.168;5.800;2023-02-23T14:47:24;101708.4;;;8.36;98.27
54856;BME280;40748;53.168;5.800;2023-02-23T14:49:55;101714.01;;;8.23;98.16
54856;BME280;40748;53.168;5.800;2023-02-23T14:52:24;101716.3;;;8.20;97.99
54856;BME280;40748;53.168;5.800;2023-02-23T14:55:03;101704.88;;;8.28;97.12
54856;BME280;40748;53.168;5.800;2023-02-23T14:57:24;101710.04000000001;;;8.55;96.83
54856;BME280;40748;53.168;5.800;2023-02-23T14:59:55;101712.98000000001;;;8.40;96.94
54856;BME280;40748;53.168;5.800;2023-02-23T15:04:54;101714.17;;;8.20;96.68
54856;BME280;40748;53.168;5.800;2023-02-23T15:07:25;101710.83;;;8.35;95.81
54856;BME280;40748;53.168;5.800;2023-02-23T15:09:54;101712.3;;;8.47;96.64
54856;BME280;40748;53.168;5.800;2023-02-23T15:12:24;101714.72;;;8.49;95.61
54856;BME280;40748;53.168;5.800;2023-02-23T15:14:55;101718.06;;;8.32;95.70
54856;BME280;40748;53.168;5.800;2023-02-23T15:17:25;101717.3;;;8.29;94.35
54856;BME280;40748;53.168;5.800;2023-02-23T15:19:54;101721.25;;;8.33;95.20
54856;BME280;40748;53.168;5.800;2023-02-23T15:22:25;101721.62;;;8.12;95.10
54856;BME280;40748;53.168;5.800;2023-02-23T15:24:55;101719.53;;;8.13;94.22
54856;BME280;40748;53.168;5.800;2023-02-23T15:27:28;101721.03;;;8.17;95.00
54856;BME280;40748;53.168;5.800;2023-02-23T15:29:54;101723.61;;;8.15;94.27
54856;BME280;40748;53.168;5.800;2023-02-23T15:34:54;101720.43;;;8.28;94.02
54856;BME280;40748;53.168;5.800;2023-02-23T15:37:26;101723.24;;;8.16;93.92
54856;BME280;40748;53.168;5.800;2023-02-23T15:39:55;101719.45;;;8.12;93.64
54856;BME280;40748;53.168;5.800;2023-02-23T15:42:24;101727.55;;;8.06;93.42
54856;BME280;40748;53.168;5.800;2023-02-23T15:44:55;101730.66;;;8.10;92.75
54856;BME280;40748;53.168;5.800;2023-02-23T15:49:59;101734.55;;;8.11;92.58